createdAt,value
2019-02-28T00:00:44.498Z,78.58
2019-02-28T00:03:13.222Z,78.55
2019-02-28T00:05:41.943Z,78.67
2019-02-28T00:08:10.817Z,78.71
2019-02-28T00:10:39.538Z,79.31
2019-02-28T00:13:08.263Z,79.06
2019-02-28T00:15:37.044Z,79.18
2019-02-28T00:18:05.780Z,79.81
2019-02-28T00:20:36.537Z,79.93
2019-02-28T00:23:05.101Z,79.10
2019-02-28T00:25:37.790Z,79.47
2019-02-28T00:28:04.271Z,79.97
2019-02-28T00:30:33.029Z,80.53
2019-02-28T00:33:01.751Z,80.57
2019-02-28T00:35:30.463Z,80.77
2019-02-28T00:37:59.336Z,81.50
2019-02-28T00:40:28.063Z,82.20
2019-02-28T00:43:02.948Z,82.64
2019-02-28T00:45:36.303Z,83.20
2019-02-28T00:48:02.276Z,83.03
2019-02-28T00:50:30.995Z,82.56
2019-02-28T00:53:00.005Z,82.77
2019-02-28T00:55:28.726Z,82.41
2019-02-28T00:57:57.450Z,82.65
2019-02-28T01:00:26.333Z,82.24
2019-02-28T01:03:00.940Z,82.07
2019-02-28T01:05:29.670Z,82.01
2019-02-28T01:07:58.426Z,81.79
2019-02-28T01:10:27.142Z,80.76
2019-02-28T01:12:55.870Z,80.54
2019-02-28T01:15:24.668Z,80.69
2019-02-28T01:17:53.389Z,80.55
2019-02-28T01:20:22.113Z,80.33
2019-02-28T01:22:50.986Z,79.79
2019-02-28T01:25:19.714Z,79.37
2019-02-28T01:27:48.433Z,79.64
2019-02-28T01:30:17.517Z,79.59
2019-02-28T01:32:49.931Z,79.52
2019-02-28T01:35:16.890Z,79.93
2019-02-28T01:37:45.755Z,80.35
2019-02-28T01:40:15.840Z,80.43
2019-02-28T01:42:44.559Z,80.55
2019-02-28T01:45:14.174Z,80.62
2019-02-28T01:47:42.907Z,80.41
2019-02-28T01:50:12.732Z,80.58
2019-02-28T01:52:45.728Z,80.61
2019-02-28T01:55:12.366Z,80.21
2019-02-28T01:57:44.002Z,79.95
2019-02-28T02:00:14.547Z,79.44
2019-02-28T02:02:43.255Z,79.18
2019-02-28T02:05:12.371Z,80.00
2019-02-28T02:07:41.153Z,80.15
2019-02-28T02:10:23.135Z,80.58
2019-02-28T02:12:52.525Z,80.14
2019-02-28T02:15:21.545Z,79.73
2019-02-28T02:17:50.272Z,79.81
2019-02-28T02:20:19.165Z,78.85
2019-02-28T02:22:47.969Z,78.89
2019-02-28T02:25:16.689Z,77.95
2019-02-28T02:27:45.479Z,77.64
2019-02-28T02:30:23.059Z,77.06
2019-02-28T02:32:57.864Z,76.48
2019-02-28T02:35:26.550Z,75.97
2019-02-28T02:37:55.257Z,75.89
2019-02-28T02:40:24.329Z,75.42
2019-02-28T02:42:53.316Z,75.46
2019-02-28T02:45:22.036Z,75.21
2019-02-28T02:47:51.168Z,74.83
2019-02-28T02:50:19.888Z,75.74
2019-02-28T02:52:48.599Z,76.75
2019-02-28T02:55:17.370Z,77.80
2019-02-28T02:57:50.582Z,78.57
2019-02-28T03:00:18.651Z,79.15
2019-02-28T03:02:47.408Z,79.90
2019-02-28T03:05:16.235Z,80.68
2019-02-28T03:07:44.964Z,80.94
2019-02-28T03:10:19.702Z,81.07
2019-02-28T03:12:48.420Z,81.35
2019-02-28T03:15:24.786Z,81.15
2019-02-28T03:17:49.475Z,81.41
2019-02-28T03:20:18.193Z,81.29
2019-02-28T03:22:46.948Z,80.79
2019-02-28T03:25:18.990Z,80.77
2019-02-28T03:27:55.075Z,80.74
2019-02-28T03:30:29.469Z,80.54
2019-02-28T03:32:52.150Z,80.64
2019-02-28T03:35:20.977Z,80.90
2019-02-28T03:37:49.663Z,80.94
2019-02-28T03:40:18.468Z,80.85
2019-02-28T03:42:47.191Z,80.66
2019-02-28T03:45:16.402Z,80.41
2019-02-28T03:47:45.546Z,80.14
2019-02-28T03:50:14.457Z,80.06
2019-02-28T03:52:44.704Z,80.09
2019-02-28T03:55:14.806Z,79.66
2019-02-28T03:57:43.540Z,79.30
2019-02-28T04:00:23.513Z,79.10
2019-02-28T04:02:57.052Z,78.72
2019-02-28T04:05:28.118Z,78.89
2019-02-28T04:07:54.951Z,79.48
2019-02-28T04:10:23.867Z,80.02
2019-02-28T04:12:52.599Z,80.29
2019-02-28T04:15:21.668Z,80.24
2019-02-28T04:17:50.380Z,80.98
2019-02-28T04:20:19.211Z,81.41
2019-02-28T04:22:48.235Z,81.16
2019-02-28T04:25:22.430Z,81.41
2019-02-28T04:27:47.395Z,81.21
2019-02-28T04:30:16.893Z,81.16
2019-02-28T04:32:47.088Z,81.50
2019-02-28T04:35:15.814Z,82.57
2019-02-28T04:37:47.035Z,82.56
2019-02-28T04:40:15.145Z,82.16
2019-02-28T04:42:43.866Z,81.99
2019-02-28T04:45:13.934Z,82.00
2019-02-28T04:47:42.660Z,82.17
2019-02-28T04:50:12.397Z,82.12
2019-02-28T04:52:46.763Z,82.27
2019-02-28T04:55:12.393Z,82.03
2019-02-28T04:57:41.104Z,81.62
2019-02-28T05:00:18.076Z,81.34
2019-02-28T05:02:46.820Z,81.24
2019-02-28T05:05:15.547Z,81.64
2019-02-28T05:07:44.539Z,81.53
2019-02-28T05:10:13.360Z,81.96
2019-02-28T05:12:42.086Z,82.06
2019-02-28T05:15:13.166Z,81.53
2019-02-28T05:17:41.892Z,81.93
2019-02-28T05:20:12.193Z,82.08
2019-02-28T05:22:41.384Z,81.68
2019-02-28T05:25:11.214Z,81.33
2019-02-28T05:27:39.948Z,81.40
2019-02-28T05:30:17.879Z,80.64
2019-02-28T05:32:44.336Z,80.41
2019-02-28T05:35:13.427Z,80.22
2019-02-28T05:37:46.871Z,80.51
2019-02-28T05:40:14.441Z,80.58
2019-02-28T05:42:43.196Z,80.74
2019-02-28T05:45:14.922Z,80.77
2019-02-28T05:47:46.538Z,80.81
2019-02-28T05:50:16.577Z,80.25
2019-02-28T05:52:44.577Z,79.61
2019-02-28T05:55:13.519Z,78.90
2019-02-28T05:57:44.657Z,77.75
2019-02-28T06:00:18.548Z,77.57
2019-02-28T06:02:47.268Z,77.12
2019-02-28T06:05:16.831Z,76.60
2019-02-28T06:07:46.090Z,75.62
2019-02-28T06:10:15.571Z,75.65
2019-02-28T06:12:45.020Z,75.92
2019-02-28T06:15:17.007Z,75.51
2019-02-28T06:17:45.706Z,75.45
2019-02-28T06:20:17.934Z,74.78
2019-02-28T06:22:46.995Z,74.55
2019-02-28T06:25:24.013Z,73.66
2019-02-28T06:27:50.458Z,72.87
2019-02-28T06:30:17.661Z,71.37
2019-02-28T06:32:46.382Z,71.18
2019-02-28T06:35:17.659Z,70.52
2019-02-28T06:37:45.703Z,69.61
2019-02-28T06:40:15.432Z,69.47
2019-02-28T06:42:46.659Z,68.91
2019-02-28T06:45:18.647Z,67.56
2019-02-28T06:47:49.349Z,65.91
2019-02-28T06:50:19.056Z,65.22
2019-02-28T06:52:47.953Z,64.96
2019-02-28T06:55:26.966Z,64.33
2019-02-28T06:57:58.911Z,63.25
2019-02-28T07:00:26.198Z,63.45
2019-02-28T07:02:54.936Z,61.86
2019-02-28T07:05:25.813Z,62.21
2019-02-28T07:07:54.227Z,60.90
2019-02-28T07:10:22.987Z,60.33
2019-02-28T07:12:51.728Z,61.29
2019-02-28T07:15:24.012Z,59.18
2019-02-28T07:17:50.951Z,59.55
2019-02-28T07:20:20.213Z,58.62
2019-02-28T07:22:54.612Z,57.65
2019-02-28T07:25:19.389Z,56.48
2019-02-28T07:27:48.130Z,56.03
2019-02-28T07:30:20.905Z,56.02
2019-02-28T07:32:49.634Z,55.33
2019-02-28T07:35:18.484Z,55.30
2019-02-28T07:37:47.216Z,54.71
2019-02-28T07:40:18.111Z,54.77
2019-02-28T07:42:47.060Z,54.75
2019-02-28T07:45:16.565Z,54.23
2019-02-28T07:47:45.309Z,54.93
2019-02-28T07:50:17.190Z,54.88
2019-02-28T07:52:45.910Z,54.41
2019-02-28T07:55:16.231Z,54.63
2019-02-28T07:57:45.202Z,54.56
2019-02-28T08:00:19.903Z,52.97
2019-02-28T08:02:49.776Z,53.11
2019-02-28T08:05:18.845Z,52.38
2019-02-28T08:07:52.089Z,53.24
2019-02-28T08:10:30.631Z,52.89
2019-02-28T08:12:59.383Z,51.54
2019-02-28T08:15:30.000Z,51.79
2019-02-28T08:17:58.771Z,51.11
2019-02-28T08:20:30.711Z,51.05
2019-02-28T08:22:58.015Z,50.77
2019-02-28T08:25:26.964Z,50.66
2019-02-28T08:27:59.103Z,50.84
2019-02-28T08:30:28.668Z,51.02
2019-02-28T08:32:57.906Z,49.74
2019-02-28T08:35:26.651Z,50.87
2019-02-28T08:37:57.196Z,50.41
2019-02-28T08:40:27.301Z,47.05
2019-02-28T08:42:56.017Z,46.82
2019-02-28T08:45:25.870Z,47.05
2019-02-28T08:47:56.577Z,47.84
2019-02-28T08:50:26.241Z,47.74
2019-02-28T08:53:00.726Z,47.57
2019-02-28T08:55:29.548Z,46.44
2019-02-28T08:58:04.993Z,46.87
2019-02-28T09:00:32.583Z,46.49
2019-02-28T09:03:00.886Z,46.23
2019-02-28T09:05:30.620Z,45.92
2019-02-28T09:07:59.595Z,44.73
2019-02-28T09:10:28.454Z,45.89
2019-02-28T09:12:57.325Z,45.22
2019-02-28T09:15:30.074Z,44.63
2019-02-28T09:17:59.359Z,45.09
2019-02-28T09:20:26.987Z,45.42
2019-02-28T09:23:01.568Z,42.43
2019-02-28T09:25:27.018Z,42.39
2019-02-28T09:27:55.896Z,42.58
2019-02-28T09:30:57.445Z,42.09
2019-02-28T09:33:26.176Z,42.15
2019-02-28T09:35:54.897Z,42.90
2019-02-28T09:38:23.694Z,41.48
2019-02-28T09:40:52.421Z,42.26
2019-02-28T09:43:23.917Z,41.42
2019-02-28T09:45:51.647Z,40.81
2019-02-28T09:48:20.427Z,39.89
2019-02-28T09:50:49.138Z,40.49
2019-02-28T09:53:18.106Z,39.64
2019-02-28T09:55:46.835Z,39.77
2019-02-28T09:58:15.551Z,40.23
2019-02-28T10:00:46.510Z,39.39
2019-02-28T10:03:15.478Z,38.66
2019-02-28T10:05:45.589Z,38.80
2019-02-28T10:08:14.381Z,38.26
2019-02-28T10:10:43.105Z,37.38
2019-02-28T10:13:14.600Z,37.98
2019-02-28T10:15:42.477Z,38.39
2019-02-28T10:18:12.814Z,38.08
2019-02-28T10:20:42.132Z,37.70
2019-02-28T10:23:10.992Z,37.93
2019-02-28T10:25:43.310Z,37.92
2019-02-28T10:28:10.162Z,37.34
2019-02-28T10:30:40.351Z,38.34
2019-02-28T10:33:09.099Z,36.72
2019-02-28T10:35:37.810Z,36.06
2019-02-28T10:38:06.582Z,37.77
2019-02-28T10:40:35.304Z,37.02
2019-02-28T10:43:05.377Z,36.07
2019-02-28T10:45:34.366Z,36.36
2019-02-28T10:48:04.519Z,35.84
2019-02-28T10:50:34.840Z,36.00
2019-02-28T10:53:06.041Z,36.46
2019-02-28T10:55:35.126Z,35.96
2019-02-28T10:58:05.247Z,36.39
2019-02-28T11:00:36.834Z,36.29
2019-02-28T11:03:05.663Z,35.98
2019-02-28T11:05:37.395Z,35.95
2019-02-28T11:08:09.640Z,35.53
2019-02-28T11:10:40.032Z,35.87
2019-02-28T11:13:12.392Z,35.33
2019-02-28T11:15:41.606Z,35.14
2019-02-28T11:18:11.514Z,35.37
2019-02-28T11:20:41.048Z,34.39
2019-02-28T11:23:14.146Z,35.80
2019-02-28T11:25:41.242Z,34.79
2019-02-28T11:28:11.246Z,34.83
2019-02-28T11:30:44.038Z,35.02
2019-02-28T11:33:10.537Z,34.36
2019-02-28T11:35:39.314Z,34.68
2019-02-28T11:38:08.032Z,34.51
2019-02-28T11:40:36.866Z,35.31
2019-02-28T11:43:06.071Z,34.60
2019-02-28T11:45:37.065Z,34.90
2019-02-28T11:48:08.113Z,34.84
2019-02-28T11:50:40.950Z,33.55
2019-02-28T11:53:07.895Z,33.82
2019-02-28T11:55:36.629Z,33.54
2019-02-28T11:58:05.477Z,33.91
2019-02-28T12:00:39.238Z,33.11
2019-02-28T12:03:09.411Z,33.20
2019-02-28T12:05:38.556Z,33.38
2019-02-28T12:08:10.295Z,33.58
2019-02-28T12:10:37.840Z,32.18
2019-02-28T12:13:08.158Z,31.00
2019-02-28T12:15:41.785Z,30.93
2019-02-28T12:18:10.513Z,32.60
2019-02-28T12:20:39.431Z,32.30
2019-02-28T12:23:08.351Z,32.49
2019-02-28T12:25:39.607Z,32.31
2019-02-28T12:28:07.946Z,32.93
2019-02-28T12:30:37.077Z,32.59
2019-02-28T12:33:05.922Z,32.34
2019-02-28T12:35:40.281Z,31.30
2019-02-28T12:38:06.669Z,31.90
2019-02-28T12:40:37.300Z,31.24
2019-02-28T12:43:11.242Z,30.97
2019-02-28T12:45:41.777Z,31.07
2019-02-28T12:48:13.776Z,31.62
2019-02-28T12:50:42.905Z,31.85
2019-02-28T12:53:11.632Z,31.30
2019-02-28T12:55:40.375Z,31.25
2019-02-28T12:58:09.356Z,30.92
2019-02-28T13:00:43.942Z,30.15
2019-02-28T13:03:12.779Z,30.16
2019-02-28T13:05:43.365Z,30.84
2019-02-28T13:08:12.200Z,30.73
2019-02-28T13:10:42.207Z,31.07
2019-02-28T13:13:11.582Z,31.25
2019-02-28T13:15:45.565Z,31.45
2019-02-28T13:18:13.726Z,31.34
2019-02-28T13:20:42.892Z,31.97
2019-02-28T13:23:11.671Z,31.14
2019-02-28T13:25:40.442Z,30.67
2019-02-28T13:28:09.421Z,31.21
2019-02-28T13:30:39.999Z,30.69
2019-02-28T13:33:11.100Z,29.68
2019-02-28T13:35:45.747Z,29.35
2019-02-28T13:38:17.385Z,29.77
2019-02-28T13:40:44.790Z,30.25
2019-02-28T13:43:20.893Z,29.95
2019-02-28T13:45:45.992Z,30.40
2019-02-28T13:48:25.427Z,29.60
2019-02-28T13:50:46.182Z,30.56
2019-02-28T13:53:17.840Z,30.34
2019-02-28T13:55:45.470Z,30.13
2019-02-28T13:58:17.641Z,30.48
2019-02-28T14:00:48.292Z,29.65
2019-02-28T14:03:17.262Z,30.47
2019-02-28T14:05:46.179Z,29.95
2019-02-28T14:08:22.424Z,29.66
2019-02-28T14:10:51.851Z,29.37
2019-02-28T14:13:22.523Z,28.71
2019-02-28T14:15:53.249Z,28.96
2019-02-28T14:18:22.201Z,28.68
2019-02-28T14:20:52.257Z,29.04
2019-02-28T14:23:21.655Z,29.36
2019-02-28T14:25:51.912Z,30.13
2019-02-28T14:28:20.742Z,29.17
2019-02-28T14:30:49.455Z,29.33
2019-02-28T14:33:20.778Z,29.85
2019-02-28T14:35:49.625Z,29.81
2019-02-28T14:38:18.348Z,30.48
2019-02-28T14:40:49.635Z,30.41
2019-02-28T14:43:19.662Z,30.94
2019-02-28T14:45:48.150Z,30.53
2019-02-28T14:48:18.123Z,30.60
2019-02-28T14:50:46.945Z,30.64
2019-02-28T14:53:15.676Z,30.38
2019-02-28T14:55:44.609Z,30.68
2019-02-28T14:58:13.334Z,31.20
2019-02-28T15:00:43.336Z,31.78
2019-02-28T15:03:12.411Z,32.66
2019-02-28T15:05:42.643Z,32.26
2019-02-28T15:08:11.972Z,32.09
2019-02-28T15:10:42.384Z,31.80
2019-02-28T15:13:11.185Z,31.89
2019-02-28T15:15:40.016Z,31.37
2019-02-28T15:18:11.112Z,31.57
2019-02-28T15:20:39.500Z,32.08
2019-02-28T15:23:08.297Z,32.33
2019-02-28T15:25:37.372Z,32.83
2019-02-28T15:28:06.265Z,32.91
2019-02-28T15:30:42.136Z,33.26
2019-02-28T15:33:10.950Z,33.83
2019-02-28T15:35:39.763Z,34.09
2019-02-28T15:38:09.995Z,34.20
2019-02-28T15:40:46.562Z,34.48
2019-02-28T15:43:18.259Z,34.31
2019-02-28T15:45:46.079Z,34.75
2019-02-28T15:48:14.881Z,34.29
2019-02-28T15:50:44.125Z,34.42
2019-02-28T15:53:15.093Z,34.38
2019-02-28T15:55:43.460Z,34.84
2019-02-28T15:58:12.834Z,35.33
2019-02-28T16:00:41.635Z,35.77
2019-02-28T16:03:13.498Z,36.42
2019-02-28T16:05:44.064Z,36.89
2019-02-28T16:08:11.798Z,36.37
2019-02-28T16:10:52.592Z,36.09
2019-02-28T16:13:12.451Z,35.42
2019-02-28T16:15:43.241Z,35.50
2019-02-28T16:18:12.773Z,34.85
2019-02-28T16:20:41.748Z,34.55
2019-02-28T16:23:10.558Z,34.55
2019-02-28T16:25:40.170Z,34.50
2019-02-28T16:28:10.569Z,34.13
2019-02-28T16:30:40.326Z,33.54
2019-02-28T16:33:09.132Z,34.09
2019-02-28T16:35:38.185Z,34.46
2019-02-28T16:38:09.860Z,34.82
2019-02-28T16:40:39.449Z,34.05
2019-02-28T16:43:08.409Z,33.59
2019-02-28T16:45:41.062Z,33.35
2019-02-28T16:48:09.405Z,33.73
2019-02-28T16:50:38.398Z,34.01
2019-02-28T16:53:07.232Z,33.77
2019-02-28T16:55:38.862Z,33.36
2019-02-28T16:58:07.756Z,33.44
2019-02-28T17:00:39.518Z,33.77
2019-02-28T17:03:08.690Z,33.64
2019-02-28T17:05:37.551Z,33.96
2019-02-28T17:08:06.916Z,34.37
2019-02-28T17:10:40.089Z,34.74
2019-02-28T17:13:15.232Z,34.68
2019-02-28T17:16:01.376Z,35.25
2019-02-28T17:18:29.825Z,35.58
2019-02-28T17:21:00.161Z,35.47
2019-02-28T17:23:29.024Z,35.16
2019-02-28T17:26:00.335Z,34.85
2019-02-28T17:28:36.411Z,34.10
2019-02-28T17:31:15.731Z,34.18
2019-02-28T17:33:47.886Z,34.08
2019-02-28T17:36:16.908Z,34.21
2019-02-28T17:38:45.858Z,34.20
2019-02-28T17:41:14.671Z,34.21
2019-02-28T17:43:46.136Z,34.32
2019-02-28T17:46:16.689Z,34.72
2019-02-28T17:48:52.623Z,34.52
2019-02-28T17:51:31.115Z,34.97
2019-02-28T17:54:17.248Z,34.83
2019-02-28T17:56:56.389Z,35.40
2019-02-28T17:59:36.048Z,35.46
2019-02-28T18:02:24.101Z,35.23
2019-02-28T18:05:30.343Z,34.31
2019-02-28T18:08:16.150Z,34.22
2019-02-28T18:11:21.245Z,33.79
2019-02-28T18:13:55.259Z,33.59
2019-02-28T18:16:43.366Z,33.59
2019-02-28T18:19:18.981Z,33.55
2019-02-28T18:22:24.588Z,33.61
2019-02-28T18:25:14.001Z,33.59
2019-02-28T18:27:59.788Z,33.57
2019-02-28T18:31:06.626Z,33.27
2019-02-28T18:33:35.423Z,32.88
2019-02-28T18:36:08.268Z,31.96
2019-02-28T18:38:37.145Z,31.68
2019-02-28T18:41:06.574Z,31.39
2019-02-28T18:43:36.525Z,31.09
2019-02-28T18:46:06.383Z,31.48
2019-02-28T18:48:35.195Z,31.44
2019-02-28T18:51:04.009Z,31.17
2019-02-28T18:53:33.056Z,31.46
2019-02-28T18:56:01.877Z,32.13
2019-02-28T18:58:30.678Z,32.22
2019-02-28T19:00:59.675Z,34.06
2019-02-28T19:03:28.477Z,37.51
2019-02-28T19:05:58.003Z,39.13
2019-02-28T19:08:27.370Z,39.58
2019-02-28T19:10:56.177Z,39.15
2019-02-28T19:13:25.001Z,38.40
2019-02-28T19:15:54.109Z,37.96
2019-02-28T19:18:22.913Z,37.80
2019-02-28T19:20:51.730Z,37.20
2019-02-28T19:23:20.694Z,37.23
2019-02-28T19:25:49.505Z,37.34
2019-02-28T19:28:18.322Z,37.17
2019-02-28T19:30:48.666Z,36.14
2019-02-28T19:33:17.483Z,35.28
2019-02-28T19:35:46.304Z,35.39
2019-02-28T19:38:15.205Z,35.31
2019-02-28T19:40:44.007Z,34.94
2019-02-28T19:43:12.820Z,35.51
2019-02-28T19:45:44.718Z,37.12
2019-02-28T19:48:13.544Z,37.24
2019-02-28T19:50:42.376Z,37.47
2019-02-28T19:53:11.360Z,37.28
2019-02-28T19:55:40.175Z,37.15
2019-02-28T19:58:10.440Z,36.57
2019-02-28T20:00:40.229Z,35.50
2019-02-28T20:03:09.044Z,35.08
2019-02-28T20:05:37.863Z,34.21
2019-02-28T20:08:08.259Z,33.94
2019-02-28T20:10:37.066Z,33.51
2019-02-28T20:13:06.369Z,32.88
2019-02-28T20:15:39.838Z,32.49
2019-02-28T20:18:08.654Z,33.10
2019-02-28T20:20:37.495Z,33.79
2019-02-28T20:23:06.603Z,35.14
2019-02-28T20:25:35.405Z,36.37
2019-02-28T20:28:05.689Z,36.88
2019-02-28T20:30:34.885Z,38.23
2019-02-28T20:33:03.762Z,39.27
2019-02-28T20:35:32.575Z,40.17
2019-02-28T20:38:04.549Z,41.29
2019-02-28T20:40:35.774Z,42.37
2019-02-28T20:43:05.006Z,43.13
2019-02-28T20:45:36.961Z,43.81
2019-02-28T20:48:05.769Z,44.35
2019-02-28T20:50:40.693Z,44.28
2019-02-28T20:53:09.503Z,42.88
2019-02-28T20:55:38.305Z,41.96
2019-02-28T20:58:07.173Z,41.17
2019-02-28T21:00:35.981Z,40.20
2019-02-28T21:03:04.893Z,40.11
2019-02-28T21:05:33.748Z,39.74
2019-02-28T21:08:02.650Z,39.62
2019-02-28T21:10:31.455Z,40.40
2019-02-28T21:13:00.521Z,40.63
2019-02-28T21:15:29.330Z,40.54
2019-02-28T21:17:58.153Z,41.02
2019-02-28T21:20:26.975Z,40.60
2019-02-28T21:22:57.353Z,38.57
2019-02-28T21:25:27.551Z,37.81
2019-02-28T21:27:56.438Z,36.77
2019-02-28T21:30:27.306Z,36.09
2019-02-28T21:33:02.729Z,35.99
2019-02-28T21:35:31.538Z,36.06
2019-02-28T21:38:00.334Z,36.19
2019-02-28T21:40:29.222Z,36.58
2019-02-28T21:42:58.038Z,37.31
2019-02-28T21:45:28.361Z,37.78
2019-02-28T21:47:57.245Z,37.80
2019-02-28T21:50:26.067Z,38.39
2019-02-28T21:52:54.892Z,38.32
2019-02-28T21:55:23.792Z,38.74
2019-02-28T21:57:52.580Z,39.15
2019-02-28T22:00:32.056Z,39.46
2019-02-28T22:03:00.854Z,39.65
2019-02-28T22:05:29.677Z,40.18
2019-02-28T22:07:58.744Z,40.31
2019-02-28T22:10:27.547Z,40.66
2019-02-28T22:12:56.355Z,40.67
2019-02-28T22:15:26.239Z,40.48
2019-02-28T22:17:55.052Z,40.15
2019-02-28T22:20:23.861Z,39.89
2019-02-28T22:22:52.765Z,39.54
2019-02-28T22:25:21.577Z,39.65
2019-02-28T22:27:51.282Z,39.35
2019-02-28T22:30:35.174Z,39.26
2019-02-28T22:33:05.535Z,38.79
2019-02-28T22:35:42.195Z,38.81
2019-02-28T22:38:11.000Z,38.68
2019-02-28T22:40:39.814Z,38.48
2019-02-28T22:43:09.041Z,38.75
2019-02-28T22:45:37.852Z,39.31
2019-02-28T22:48:06.655Z,39.24
2019-02-28T22:50:35.522Z,39.55
2019-02-28T22:53:04.332Z,39.49
2019-02-28T22:55:33.158Z,40.01
2019-02-28T22:58:10.385Z,40.35
2019-02-28T23:00:43.668Z,40.76
2019-02-28T23:03:12.481Z,40.72
2019-02-28T23:05:41.349Z,40.91
2019-02-28T23:08:10.173Z,41.07
2019-02-28T23:10:38.975Z,40.96
2019-02-28T23:13:08.306Z,41.18
2019-02-28T23:15:37.100Z,41.06
2019-02-28T23:18:05.909Z,41.06
2019-02-28T23:20:34.887Z,40.52
2019-02-28T23:23:03.668Z,40.67
2019-02-28T23:25:32.698Z,40.77
2019-02-28T23:28:15.477Z,40.97
2019-02-28T23:30:55.866Z,41.07
2019-02-28T23:33:24.826Z,41.48
2019-02-28T23:35:54.125Z,41.93
2019-02-28T23:38:22.921Z,42.24
2019-02-28T23:40:51.863Z,42.43
2019-02-28T23:43:20.676Z,43.16
2019-02-28T23:45:49.495Z,43.41
2019-02-28T23:48:18.523Z,43.54
2019-02-28T23:50:47.312Z,43.08
2019-02-28T23:53:16.107Z,43.13
2019-02-28T23:55:44.942Z,42.29
2019-02-28T23:58:13.735Z,41.70
